Gorodets, Russia
Current Conditions -  °F | °C
As of 9:30 AM on Friday 31 Oct 2014 (Local Time) from UWGG Reporting Station
Broken Clouds Broken Clouds  
Wind Chill: 36°   Ceiling: 10000
Heat Index: 39°   Visibility: 4mi
Dew Point: 23°   Wind: 4mph
Humidity: 52%   Direction: 270°W
Pressure: 30"   Gusts: NA
Location:  56.65°N, 43.48°E
Report Text: UWGG 310630Z 27002MPS 7000 BKN100 04/M05 Q1016 NOSIG 18090060RMK QFE755
Loading
Personal Weather Stations






























Interactive Weather Map
Tropical Storm Tracking
New forecast layout! Learn more

10-Day Weather Forecast

Advertisements
Track Severe Weather on mobile